Time;durP1;ratioP1;P1;durP2;ratioP2;P2;SDS_P1;SDS_P2;PMS_P1;PMS_P2;Temp;Humidity;BMP_temperature;BMP_pressure;BME280_temperature;BME280_humidity;BME280_pressure;Samples;Min_cycle;Max_cycle;Signal;HPM_P1;HPM_P2
2023/03/22 00:00:26;;;;;;;2.75;1.70;;;12.70;76.70;;;;;;5007444;28;20075;-68
2023/03/22 00:02:54;;;;;;;4.05;1.13;;;12.70;76.60;;;;;;5033148;28;20096;-67
2023/03/22 00:05:19;;;;;;;1.80;1.20;;;12.70;76.50;;;;;;5011295;28;20112;-68
2023/03/22 00:07:49;;;;;;;2.88;1.88;;;12.70;76.50;;;;;;5022952;28;20184;-67
2023/03/22 00:10:15;;;;;;;2.35;1.10;;;12.70;76.30;;;;;;5030151;28;20500;-68
2023/03/22 00:12:41;;;;;;;1.85;1.02;;;12.70;76.20;;;;;;5008959;28;20087;-68
2023/03/22 00:15:11;;;;;;;3.03;1.02;;;12.70;76.10;;;;;;5006247;28;20029;-67
2023/03/22 00:17:37;;;;;;;3.20;1.25;;;12.60;76.10;;;;;;5023935;28;20029;-68
2023/03/22 00:20:05;;;;;;;1.75;1.20;;;12.60;76.00;;;;;;5022457;28;20033;-68
2023/03/22 00:22:31;;;;;;;3.42;1.30;;;12.60;75.90;;;;;;5025388;28;20481;-68
2023/03/22 00:24:58;;;;;;;5.30;1.13;;;12.60;75.90;;;;;;5031771;28;20477;-69
2023/03/22 00:27:23;;;;;;;3.15;1.17;;;12.60;75.70;;;;;;5032252;28;20031;-68
2023/03/22 00:29:52;;;;;;;2.20;1.33;;;12.50;75.70;;;;;;5030678;28;20029;-68
2023/03/22 00:32:18;;;;;;;3.13;1.15;;;12.60;75.80;;;;;;4993441;28;20048;-68
2023/03/22 00:34:44;;;;;;;3.13;1.15;;;12.60;75.70;;;;;;5026523;28;20365;-68
2023/03/22 00:37:10;;;;;;;2.35;1.20;;;12.50;75.70;;;;;;5028976;28;21060;-69
2023/03/22 00:39:35;;;;;;;5.43;1.30;;;12.50;75.70;;;;;;5036498;28;20068;-68
2023/03/22 00:42:03;;;;;;;3.65;0.80;;;12.50;75.80;;;;;;5034903;28;20155;-67
2023/03/22 00:44:29;;;;;;;1.52;0.80;;;12.50;75.60;;;;;;5024652;28;20029;-68
2023/03/22 00:46:55;;;;;;;4.35;1.20;;;12.50;75.60;;;;;;5006337;28;20091;-68
2023/03/22 00:49:20;;;;;;;1.52;1.27;;;12.50;75.60;;;;;;5027777;28;20372;-68
2023/03/22 00:51:46;;;;;;;0.77;0.77;;;12.50;75.50;;;;;;5030730;28;20449;-68
2023/03/22 00:54:12;;;;;;;7.97;1.88;;;12.50;75.50;;;;;;5034067;28;20045;-68
2023/03/22 00:56:37;;;;;;;1.08;0.90;;;12.50;75.40;;;;;;5031098;28;20033;-69
2023/03/22 00:59:03;;;;;;;1.55;1.02;;;12.50;75.50;;;;;;5028579;28;20042;-68
2023/03/22 01:01:29;;;;;;;2.63;0.93;;;12.40;75.40;;;;;;5037581;28;20026;-68
2023/03/22 01:03:55;;;;;;;3.28;1.05;;;12.40;75.50;;;;;;5032125;28;20037;-68
2023/03/22 01:06:21;;;;;;;2.70;0.80;;;12.40;75.50;;;;;;5034242;28;20032;-68
2023/03/22 01:08:49;;;;;;;3.55;1.48;;;12.40;75.50;;;;;;5008976;28;20071;-69
2023/03/22 01:11:16;;;;;;;3.35;1.00;;;12.40;75.40;;;;;;5010725;28;20136;-67
2023/03/22 01:13:42;;;;;;;1.52;1.00;;;12.40;75.40;;;;;;5003565;28;20025;-67
2023/03/22 01:16:08;;;;;;;1.70;1.27;;;12.40;75.40;;;;;;5023545;28;20444;-68
2023/03/22 01:18:34;;;;;;;1.23;0.90;;;12.40;75.40;;;;;;5015651;28;20029;-68
2023/03/22 01:21:00;;;;;;;1.73;0.80;;;12.40;75.50;;;;;;5036734;28;20120;-68
2023/03/22 01:23:27;;;;;;;0.70;0.70;;;12.40;75.50;;;;;;5036334;28;20025;-68
2023/03/22 01:25:52;;;;;;;3.08;1.25;;;12.40;75.50;;;;;;5036785;28;20020;-68
2023/03/22 01:28:18;;;;;;;1.05;0.85;;;12.30;75.50;;;;;;5027556;28;20030;-69
2023/03/22 01:30:44;;;;;;;1.92;1.35;;;12.30;75.70;;;;;;5030873;28;20032;-69
2023/03/22 01:33:10;;;;;;;2.28;1.27;;;12.30;75.80;;;;;;5036817;28;20526;-68
2023/03/22 01:35:36;;;;;;;1.95;0.98;;;12.20;75.80;;;;;;5034021;28;20029;-67
2023/03/22 01:38:02;;;;;;;2.35;1.10;;;12.20;75.80;;;;;;5038421;28;20030;-68
2023/03/22 01:40:28;;;;;;;1.20;1.02;;;12.20;75.90;;;;;;5038195;28;20138;-68
2023/03/22 01:42:54;;;;;;;1.63;0.95;;;12.20;75.90;;;;;;5040619;28;20034;-68
2023/03/22 01:45:35;;;;;;;4.05;1.63;;;12.20;75.90;;;;;;5029676;28;20041;-68
2023/03/22 01:48:08;;;;;;;2.40;1.45;;;12.20;76.00;;;;;;5034354;28;20028;-68
2023/03/22 01:50:37;;;;;;;3.40;1.27;;;12.20;76.10;;;;;;5042579;28;20546;-68
2023/03/22 01:53:05;;;;;;;3.25;1.35;;;12.20;76.30;;;;;;5037293;28;20032;-68
2023/03/22 01:55:32;;;;;;;2.00;1.15;;;12.20;76.40;;;;;;5030641;28;20120;-68
2023/03/22 01:57:59;;;;;;;1.42;1.20;;;12.20;76.40;;;;;;5033843;28;20036;-68
2023/03/22 02:00:26;;;;;;;2.50;0.82;;;12.20;76.30;;;;;;5036571;28;20033;-67
2023/03/22 02:02:52;;;;;;;4.82;1.33;;;12.20;76.20;;;;;;5043062;28;20044;-68
2023/03/22 02:05:18;;;;;;;3.05;1.13;;;12.30;76.30;;;;;;5027525;28;20038;-68
2023/03/22 02:07:44;;;;;;;4.05;1.23;;;12.30;76.30;;;;;;4992896;28;20033;-68
2023/03/22 02:10:13;;;;;;;5.05;1.30;;;12.20;76.50;;;;;;5012714;28;20033;-68
2023/03/22 02:12:47;;;;;;;2.60;1.15;;;12.30;76.50;;;;;;5027945;28;20033;-67
2023/03/22 02:15:32;;;;;;;1.35;1.10;;;12.30;76.50;;;;;;5025791;28;20378;-67
2023/03/22 02:18:31;;;;;;;2.65;1.52;;;12.30;76.50;;;;;;5031459;28;20038;-68
2023/03/22 02:21:21;;;;;;;5.22;1.90;;;12.30;76.60;;;;;;5026088;28;20033;-69
2023/03/22 02:24:40;;;;;;;1.73;1.20;;;12.30;77.10;;;;;;5029814;28;20783;-68
2023/03/22 02:27:15;;;;;;;3.58;2.17;;;12.30;77.10;;;;;;5001486;28;20076;-67
2023/03/22 02:29:43;;;;;;;4.80;1.58;;;12.30;77.70;;;;;;5028822;28;20018;-68
2023/03/22 02:32:18;;;;;;;2.72;1.52;;;12.30;77.60;;;;;;5014577;28;20127;-68
2023/03/22 02:35:11;;;;;;;2.72;1.98;;;12.40;77.50;;;;;;5033762;28;20384;-68
2023/03/22 02:37:50;;;;;;;3.25;1.77;;;12.40;77.40;;;;;;5027569;28;20029;-68
2023/03/22 02:40:34;;;;;;;1.73;1.30;;;12.50;77.40;;;;;;5009365;28;20046;-67
2023/03/22 02:43:23;;;;;;;2.20;1.30;;;12.50;77.20;;;;;;5032207;28;20036;-67
2023/03/22 02:46:21;;;;;;;1.77;1.67;;;12.50;77.30;;;;;;5028871;28;20017;-68
2023/03/22 02:49:06;;;;;;;4.53;1.98;;;12.50;77.20;;;;;;5022396;28;21790;-68
2023/03/22 02:51:41;;;;;;;3.80;2.00;;;12.40;77.40;;;;;;5034429;28;20021;-67
2023/03/22 02:54:25;;;;;;;2.13;1.30;;;12.40;77.50;;;;;;5007171;28;20030;-68
2023/03/22 02:57:01;;;;;;;3.55;2.45;;;12.40;77.80;;;;;;5026685;28;20039;-67
2023/03/22 02:59:30;;;;;;;7.35;2.63;;;12.40;78.50;;;;;;5028988;28;20025;-68
2023/03/22 03:01:59;;;;;;;6.28;2.80;;;12.40;78.60;;;;;;5011915;28;20029;-68
2023/03/22 03:04:30;;;;;;;4.43;2.67;;;12.40;78.80;;;;;;5033469;28;20343;-68
2023/03/22 03:07:01;;;;;;;4.20;2.17;;;12.40;78.80;;;;;;5033375;28;20021;-68
2023/03/22 03:09:28;;;;;;;3.70;2.35;;;12.40;78.60;;;;;;5034035;28;20021;-68
2023/03/22 03:11:54;;;;;;;4.30;2.10;;;12.50;78.50;;;;;;5024884;28;20108;-68
2023/03/22 03:14:26;;;;;;;2.78;2.03;;;12.40;78.60;;;;;;5025466;28;20018;-67
2023/03/22 03:17:10;;;;;;;4.57;2.80;;;12.50;78.70;;;;;;5028761;28;20534;-69
2023/03/22 03:20:07;;;;;;;3.75;2.22;;;12.50;78.80;;;;;;5033466;28;20043;-67
2023/03/22 03:23:00;;;;;;;4.35;2.58;;;12.40;78.90;;;;;;5031151;28;20485;-67
2023/03/22 03:25:33;;;;;;;5.07;3.15;;;12.40;79.00;;;;;;5027237;28;20021;-67
2023/03/22 03:28:37;;;;;;;4.00;2.63;;;12.40;79.50;;;;;;5026758;28;20373;-69
2023/03/22 03:31:08;;;;;;;4.53;3.15;;;12.40;80.00;;;;;;5010749;28;20488;-68
2023/03/22 03:33:39;;;;;;;5.35;2.35;;;12.40;80.00;;;;;;5031605;28;20028;-69
2023/03/22 03:36:10;;;;;;;11.40;4.20;;;12.40;80.00;;;;;;5012921;28;20029;-68
2023/03/22 03:38:40;;;;;;;4.18;2.45;;;12.40;80.20;;;;;;5023418;28;20385;-68
2023/03/22 03:41:12;;;;;;;3.35;2.05;;;12.40;80.30;;;;;;5010401;28;20096;-68
2023/03/22 03:43:39;;;;;;;9.95;3.22;;;12.40;80.10;;;;;;5035215;28;20266;-68
2023/03/22 03:46:06;;;;;;;5.57;2.08;;;12.50;80.30;;;;;;5037802;28;20054;-66
2023/03/22 03:48:34;;;;;;;3.55;2.30;;;12.50;80.20;;;;;;5035825;28;20033;-68
2023/03/22 03:51:01;;;;;;;4.82;2.72;;;12.50;80.30;;;;;;5024075;28;20074;-67
2023/03/22 03:53:28;;;;;;;7.18;3.35;;;12.50;80.10;;;;;;5031760;28;20033;-67
2023/03/22 03:55:54;;;;;;;5.07;3.47;;;12.50;80.10;;;;;;5023901;28;20473;-67
2023/03/22 03:58:20;;;;;;;3.70;2.30;;;12.50;80.20;;;;;;5036365;28;20099;-67
2023/03/22 04:00:46;;;;;;;2.53;2.33;;;12.50;80.20;;;;;;5013434;28;20504;-67
2023/03/22 04:03:13;;;;;;;3.85;2.00;;;12.50;80.10;;;;;;5037124;28;20068;-67
2023/03/22 04:05:39;;;;;;;7.43;2.30;;;12.50;80.10;;;;;;5023097;28;20021;-67
2023/03/22 04:08:06;;;;;;;5.75;2.15;;;12.50;80.10;;;;;;5033866;28;20033;-68
2023/03/22 04:10:32;;;;;;;5.60;2.85;;;12.50;80.10;;;;;;5030311;28;20046;-64
2023/03/22 04:12:57;;;;;;;4.28;2.10;;;12.50;80.10;;;;;;5018476;28;20107;-65
2023/03/22 04:15:23;;;;;;;4.55;2.15;;;12.50;80.10;;;;;;5034719;28;20030;-68
2023/03/22 04:17:49;;;;;;;5.55;2.67;;;12.50;80.30;;;;;;5013570;28;20029;-68
2023/03/22 04:20:16;;;;;;;3.63;1.98;;;12.40;80.40;;;;;;5027337;28;20599;-69
2023/03/22 04:22:43;;;;;;;3.83;2.22;;;12.40;80.40;;;;;;5035936;28;20139;-68
2023/03/22 04:25:16;;;;;;;3.42;2.58;;;12.40;80.30;;;;;;5014333;28;20477;-67
2023/03/22 04:27:44;;;;;;;4.75;2.30;;;12.30;80.40;;;;;;5025501;28;20500;-68
2023/03/22 04:30:17;;;;;;;2.63;1.92;;;12.30;80.30;;;;;;5027605;28;20507;-68
2023/03/22 04:32:44;;;;;;;3.80;2.53;;;12.30;80.30;;;;;;5022166;28;20034;-68
2023/03/22 04:35:10;;;;;;;3.95;2.33;;;12.30;80.30;;;;;;5029271;28;20435;-67
2023/03/22 04:37:35;;;;;;;5.80;1.75;;;12.30;80.30;;;;;;5027933;28;20447;-68
2023/03/22 04:40:05;;;;;;;6.72;2.55;;;12.30;80.40;;;;;;5028018;28;20045;-67
2023/03/22 04:42:31;;;;;;;2.50;1.58;;;12.30;80.30;;;;;;5010022;28;20022;-68
2023/03/22 04:44:57;;;;;;;3.00;1.90;;;12.30;80.30;;;;;;5028884;28;20048;-68
2023/03/22 04:47:22;;;;;;;6.38;1.55;;;12.20;80.80;;;;;;5022212;28;20057;-67
2023/03/22 04:49:48;;;;;;;3.95;1.98;;;12.20;80.30;;;;;;5029476;28;20025;-68
2023/03/22 04:52:14;;;;;;;3.13;1.88;;;12.20;80.30;;;;;;5008484;28;20700;-69
2023/03/22 04:54:40;;;;;;;5.47;1.60;;;12.20;80.30;;;;;;5029673;28;20025;-67
2023/03/22 04:57:06;;;;;;;4.03;1.52;;;12.20;80.20;;;;;;5021546;28;20038;-67
2023/03/22 04:59:32;;;;;;;5.50;2.17;;;12.20;80.30;;;;;;5001247;28;20040;-68
2023/03/22 05:01:58;;;;;;;4.07;2.22;;;12.20;80.20;;;;;;5027577;28;20025;-67
2023/03/22 05:04:23;;;;;;;1.95;1.48;;;12.20;80.40;;;;;;5019877;28;20076;-67
2023/03/22 05:06:49;;;;;;;2.38;1.42;;;12.10;80.30;;;;;;5028148;28;20138;-67
2023/03/22 05:09:15;;;;;;;1.98;1.42;;;12.20;80.20;;;;;;5024570;28;20025;-67
2023/03/22 05:11:41;;;;;;;1.95;1.63;;;12.10;80.20;;;;;;5026016;28;20104;-69
2023/03/22 05:14:08;;;;;;;2.88;2.00;;;12.10;80.40;;;;;;5020468;28;20065;-67
2023/03/22 05:16:34;;;;;;;2.92;1.83;;;12.10;80.30;;;;;;5023789;28;20025;-68
2023/03/22 05:19:01;;;;;;;3.33;1.85;;;12.10;80.40;;;;;;5007411;28;20033;-68
2023/03/22 05:21:35;;;;;;;3.67;1.42;;;12.10;80.40;;;;;;5034926;28;20037;-63
2023/03/22 05:24:01;;;;;;;3.03;1.42;;;12.00;80.40;;;;;;5023945;28;20535;-68
2023/03/22 05:26:26;;;;;;;3.70;1.92;;;12.10;80.50;;;;;;5033283;28;20025;-67
2023/03/22 05:28:53;;;;;;;2.10;1.15;;;12.10;80.40;;;;;;5013693;28;20113;-68
2023/03/22 05:31:20;;;;;;;4.03;1.92;;;12.10;80.40;;;;;;5029271;28;20032;-68
2023/03/22 05:33:50;;;;;;;1.60;1.30;;;12.10;80.30;;;;;;5027258;28;20029;-68
2023/03/22 05:36:18;;;;;;;2.90;1.60;;;12.10;80.20;;;;;;5001738;28;20029;-68
2023/03/22 05:38:44;;;;;;;3.35;1.45;;;12.10;80.20;;;;;;5025443;28;20021;-68
2023/03/22 05:41:10;;;;;;;6.30;1.60;;;12.10;80.20;;;;;;5028561;28;20041;-68
2023/03/22 05:43:37;;;;;;;6.38;1.60;;;12.10;80.40;;;;;;5003628;28;20049;-67
2023/03/22 05:46:10;;;;;;;2.88;1.65;;;12.10;80.50;;;;;;5023151;28;20021;-67
2023/03/22 05:48:37;;;;;;;1.67;1.33;;;12.10;80.30;;;;;;5021803;28;20049;-69
2023/03/22 05:51:16;;;;;;;1.48;1.00;;;12.00;80.40;;;;;;5025796;28;20108;-68
2023/03/22 05:53:43;;;;;;;3.67;1.27;;;12.00;80.30;;;;;;5028365;28;20030;-68
2023/03/22 05:56:09;;;;;;;3.95;1.58;;;12.00;80.20;;;;;;5028275;28;20556;-68
2023/03/22 05:58:35;;;;;;;1.52;0.98;;;12.00;80.20;;;;;;5027871;28;20034;-68
2023/03/22 06:01:10;;;;;;;2.17;1.23;;;12.00;80.20;;;;;;5024632;28;20033;-68
2023/03/22 06:03:36;;;;;;;1.63;1.00;;;12.00;80.20;;;;;;5011129;28;20105;-67
2023/03/22 06:06:05;;;;;;;3.85;1.40;;;12.00;80.20;;;;;;5035086;28;20025;-68
2023/03/22 06:08:32;;;;;;;2.25;1.20;;;12.00;80.10;;;;;;5034433;28;20578;-68
2023/03/22 06:10:58;;;;;;;2.90;1.45;;;12.00;80.10;;;;;;5036282;28;20026;-67
2023/03/22 06:13:24;;;;;;;2.38;1.83;;;12.00;80.10;;;;;;5034219;28;20030;-67
2023/03/22 06:15:50;;;;;;;6.07;1.88;;;12.00;80.10;;;;;;5026923;28;20441;-67
2023/03/22 06:18:16;;;;;;;3.00;1.25;;;12.00;80.00;;;;;;5032239;28;20151;-67
2023/03/22 06:20:42;;;;;;;2.55;0.85;;;12.00;80.00;;;;;;5032474;28;20237;-67
2023/03/22 06:23:09;;;;;;;2.05;1.33;;;12.00;79.90;;;;;;5034986;28;20048;-67
2023/03/22 06:25:35;;;;;;;3.13;1.75;;;12.00;79.90;;;;;;5037963;28;20369;-67
2023/03/22 06:28:00;;;;;;;3.78;1.55;;;12.00;79.90;;;;;;5028429;28;20021;-67
2023/03/22 06:30:26;;;;;;;1.17;0.90;;;12.00;79.90;;;;;;5032576;28;20012;-66
2023/03/22 06:32:52;;;;;;;4.53;1.65;;;12.00;79.90;;;;;;5032028;28;20034;-67
2023/03/22 06:35:18;;;;;;;2.40;1.33;;;12.00;79.80;;;;;;5034745;28;20025;-67
2023/03/22 06:37:44;;;;;;;2.00;1.15;;;12.00;79.80;;;;;;5004825;28;20067;-66
2023/03/22 06:40:10;;;;;;;2.65;1.60;;;12.00;79.80;;;;;;5028743;28;20029;-66
2023/03/22 06:42:36;;;;;;;5.40;1.08;;;11.90;79.70;;;;;;5027916;28;20433;-68
2023/03/22 06:45:03;;;;;;;4.35;1.23;;;11.90;79.60;;;;;;5010837;28;20025;-67
2023/03/22 06:47:28;;;;;;;2.60;1.30;;;11.90;79.70;;;;;;5004080;28;20092;-68
2023/03/22 06:49:54;;;;;;;3.08;1.40;;;12.00;79.60;;;;;;5024982;28;20026;-67
2023/03/22 06:52:20;;;;;;;4.05;1.10;;;11.90;79.40;;;;;;5023498;28;20462;-67
2023/03/22 06:54:45;;;;;;;1.77;1.08;;;11.90;79.30;;;;;;5011800;28;20065;-66
2023/03/22 06:57:11;;;;;;;3.95;1.80;;;11.90;79.30;;;;;;5032464;28;20087;-68
2023/03/22 06:59:37;;;;;;;2.13;1.25;;;12.00;79.20;;;;;;5023235;28;20026;-67
2023/03/22 07:02:03;;;;;;;2.35;0.70;;;12.00;79.00;;;;;;5024592;28;20065;-68
2023/03/22 07:04:29;;;;;;;3.35;1.80;;;12.10;79.00;;;;;;5029517;28;20030;-68
2023/03/22 07:06:56;;;;;;;2.92;1.20;;;12.20;78.70;;;;;;5033740;28;20025;-68
2023/03/22 07:09:23;;;;;;;4.88;1.10;;;12.30;78.50;;;;;;5032557;28;20104;-67
2023/03/22 07:11:49;;;;;;;2.22;1.10;;;12.40;78.30;;;;;;5026468;28;20029;-68
2023/03/22 07:14:15;;;;;;;1.83;1.10;;;12.40;78.10;;;;;;5032815;28;20534;-68
2023/03/22 07:16:41;;;;;;;2.05;1.15;;;12.40;77.90;;;;;;5026390;28;20048;-64
2023/03/22 07:19:07;;;;;;;0.82;0.80;;;12.50;77.90;;;;;;5027866;28;20173;-69
2023/03/22 07:21:32;;;;;;;5.88;2.05;;;12.50;77.70;;;;;;5006978;28;20104;-67
2023/03/22 07:23:58;;;;;;;2.72;1.10;;;12.60;77.60;;;;;;5025064;28;20436;-67
2023/03/22 07:26:29;;;;;;;0.70;0.65;;;12.60;77.40;;;;;;5025062;28;20052;-68
2023/03/22 07:28:55;;;;;;;1.88;0.88;;;12.70;77.40;;;;;;5020851;28;20302;-67
2023/03/22 07:31:20;;;;;;;1.80;1.10;;;12.70;77.20;;;;;;5022233;28;20040;-67
2023/03/22 07:33:47;;;;;;;2.45;1.27;;;12.80;76.90;;;;;;5019681;28;20032;-68
2023/03/22 07:36:13;;;;;;;5.35;1.65;;;12.80;76.80;;;;;;5025724;28;20081;-69
2023/03/22 07:38:39;;;;;;;1.75;1.23;;;12.80;76.50;;;;;;5023390;28;20017;-68
2023/03/22 07:41:05;;;;;;;1.40;1.02;;;12.80;77.00;;;;;;5009347;28;20052;-68
2023/03/22 07:43:31;;;;;;;8.38;1.75;;;12.80;76.30;;;;;;5027924;28;20043;-67
2023/03/22 07:45:56;;;;;;;2.15;0.93;;;12.80;76.20;;;;;;5008552;28;20033;-68
2023/03/22 07:48:22;;;;;;;3.67;1.38;;;12.70;76.30;;;;;;5031121;28;20099;-68
2023/03/22 07:50:49;;;;;;;1.77;1.38;;;12.70;76.40;;;;;;5015919;28;20025;-68
2023/03/22 07:53:14;;;;;;;1.63;1.00;;;12.80;76.50;;;;;;5024705;28;20033;-70
2023/03/22 07:55:43;;;;;;;3.75;1.38;;;12.80;76.30;;;;;;5029328;28;20082;-71
2023/03/22 07:58:09;;;;;;;2.47;1.42;;;12.70;76.20;;;;;;5024345;28;20461;-69
2023/03/22 08:00:35;;;;;;;2.28;1.48;;;12.70;76.40;;;;;;5012990;28;20033;-68
2023/03/22 08:03:01;;;;;;;3.08;1.70;;;12.80;76.30;;;;;;5026919;28;20040;-68
2023/03/22 08:05:26;;;;;;;2.55;1.33;;;12.80;76.30;;;;;;5006527;28;20060;-68
2023/03/22 08:07:53;;;;;;;1.85;1.23;;;12.90;76.20;;;;;;5024243;28;20376;-69
2023/03/22 08:10:19;;;;;;;1.88;1.15;;;13.00;76.10;;;;;;5023323;28;20464;-68
2023/03/22 08:12:45;;;;;;;3.50;1.27;;;13.00;76.00;;;;;;5030633;28;20037;-69
2023/03/22 08:15:11;;;;;;;3.97;1.35;;;13.10;75.70;;;;;;5013169;28;20130;-69
2023/03/22 08:17:38;;;;;;;2.95;1.33;;;13.10;75.80;;;;;;5035644;28;20484;-68
2023/03/22 08:20:08;;;;;;;3.65;1.45;;;13.00;75.70;;;;;;5024614;28;20030;-68
2023/03/22 08:22:35;;;;;;;3.80;1.63;;;13.00;75.70;;;;;;5003348;28;20041;-68
2023/03/22 08:25:04;;;;;;;5.40;1.90;;;13.00;75.50;;;;;;5025334;28;20388;-68
2023/03/22 08:27:30;;;;;;;6.28;1.08;;;13.00;75.40;;;;;;5030026;28;20076;-69
2023/03/22 08:29:57;;;;;;;1.20;1.10;;;13.00;75.50;;;;;;5022549;28;20060;-69
2023/03/22 08:32:23;;;;;;;3.53;1.33;;;13.10;75.60;;;;;;5018057;28;20045;-67
2023/03/22 08:34:48;;;;;;;2.83;1.50;;;13.20;75.20;;;;;;5027878;28;20037;-66
2023/03/22 08:37:14;;;;;;;2.58;1.83;;;13.10;74.90;;;;;;5011099;28;20037;-66
2023/03/22 08:39:42;;;;;;;2.08;1.17;;;13.10;74.70;;;;;;5029827;28;20037;-64
2023/03/22 08:42:08;;;;;;;2.40;1.02;;;13.20;75.00;;;;;;5008439;28;20041;-66
2023/03/22 08:44:34;;;;;;;2.85;1.65;;;13.20;74.50;;;;;;5027491;28;20057;-64
2023/03/22 08:47:00;;;;;;;1.05;0.95;;;13.20;74.50;;;;;;5025883;28;20029;-67
2023/03/22 08:49:26;;;;;;;3.97;1.60;;;13.20;74.50;;;;;;5021656;28;20030;-67
2023/03/22 08:51:51;;;;;;;5.47;1.75;;;13.30;74.40;;;;;;5026224;28;20037;-68
2023/03/22 08:54:17;;;;;;;5.00;0.93;;;13.30;74.20;;;;;;5015109;28;20034;-70
2023/03/22 08:56:43;;;;;;;2.20;1.40;;;13.40;74.10;;;;;;5007365;28;20500;-68
2023/03/22 08:59:09;;;;;;;5.25;1.30;;;13.40;73.90;;;;;;5020876;28;20119;-68
2023/03/22 09:01:36;;;;;;;6.90;1.85;;;13.50;73.70;;;;;;5018585;28;20103;-68
2023/03/22 09:04:03;;;;;;;3.33;1.63;;;13.60;73.20;;;;;;5026756;28;20142;-68
2023/03/22 09:06:29;;;;;;;3.67;2.00;;;13.60;72.50;;;;;;5025267;28;20026;-68
2023/03/22 09:08:55;;;;;;;3.15;1.95;;;13.70;72.30;;;;;;5014010;28;20857;-72
2023/03/22 09:11:22;;;;;;;4.55;1.50;;;13.80;71.80;;;;;;5024183;28;20022;-65
2023/03/22 09:13:48;;;;;;;2.17;1.08;;;13.80;71.60;;;;;;5024501;28;20094;-65
2023/03/22 09:16:15;;;;;;;3.05;1.70;;;13.90;71.70;;;;;;5005277;28;20025;-65
2023/03/22 09:18:41;;;;;;;2.75;1.27;;;14.00;71.30;;;;;;5023451;28;20112;-70
2023/03/22 09:21:08;;;;;;;4.32;1.10;;;14.00;70.80;;;;;;5025749;28;20441;-64
2023/03/22 09:23:36;;;;;;;1.23;1.10;;;14.00;71.40;;;;;;5027217;28;20060;-65
2023/03/22 09:26:05;;;;;;;1.45;0.90;;;14.10;70.80;;;;;;5029799;28;20440;-65
2023/03/22 09:28:31;;;;;;;1.88;1.30;;;14.20;70.30;;;;;;5024325;28;20017;-65
2023/03/22 09:31:02;;;;;;;1.58;1.15;;;14.20;69.80;;;;;;5002619;28;20395;-66
2023/03/22 09:33:27;;;;;;;2.97;0.98;;;14.20;69.90;;;;;;5020021;28;20040;-64
2023/03/22 09:35:55;;;;;;;2.17;0.70;;;14.20;69.00;;;;;;5015326;28;20033;-66
2023/03/22 09:38:22;;;;;;;1.88;1.25;;;14.20;68.90;;;;;;5010408;28;20570;-65
2023/03/22 09:41:01;;;;;;;2.55;1.05;;;14.20;69.40;;;;;;5024947;28;20523;-65
2023/03/22 09:43:47;;;;;;;3.05;1.10;;;14.20;68.60;;;;;;5024324;28;20052;-69
2023/03/22 09:46:22;;;;;;;0.82;0.55;;;14.20;68.80;;;;;;5024987;28;20022;-70
2023/03/22 09:48:49;;;;;;;2.35;1.20;;;14.10;68.90;;;;;;5034822;28;20032;-68
2023/03/22 09:51:36;;;;;;;1.63;1.20;;;14.00;68.80;;;;;;5030873;28;20033;-65
2023/03/22 09:54:02;;;;;;;1.08;0.75;;;14.00;68.60;;;;;;5032430;28;20025;-66
2023/03/22 09:56:30;;;;;;;2.17;0.82;;;13.90;69.10;;;;;;5032716;28;20030;-69
2023/03/22 09:59:16;;;;;;;2.30;1.05;;;13.90;69.10;;;;;;5024825;28;20032;-69
2023/03/22 10:02:11;;;;;;;3.75;0.95;;;13.90;69.20;;;;;;5007953;28;20074;-69
2023/03/22 10:04:48;;;;;;;3.65;1.25;;;13.90;68.90;;;;;;5013411;28;20037;-64
2023/03/22 10:07:25;;;;;;;1.20;1.10;;;13.80;68.90;;;;;;5026963;28;20032;-67
2023/03/22 10:10:00;;;;;;;1.30;0.77;;;13.80;69.20;;;;;;5029260;28;20079;-69
2023/03/22 10:12:29;;;;;;;1.70;1.05;;;13.80;69.10;;;;;;5027595;28;20549;-69
2023/03/22 10:15:14;;;;;;;6.95;1.10;;;13.80;69.30;;;;;;5022327;28;20029;-69
2023/03/22 10:17:44;;;;;;;6.07;1.55;;;13.90;69.10;;;;;;5020042;28;20033;-66
2023/03/22 10:20:35;;;;;;;7.43;1.13;;;13.90;69.00;;;;;;5009445;28;20087;-65
2023/03/22 10:23:05;;;;;;;2.20;1.20;;;13.90;68.70;;;;;;5003279;28;20065;-67
2023/03/22 10:25:36;;;;;;;2.47;0.63;;;13.80;69.10;;;;;;5028043;28;20025;-65
2023/03/22 10:28:15;;;;;;;3.10;0.93;;;13.80;69.30;;;;;;5004591;28;20088;-65
2023/03/22 10:30:43;;;;;;;3.70;0.75;;;13.80;69.70;;;;;;5034720;28;20025;-65
2023/03/22 10:33:17;;;;;;;5.78;1.35;;;13.70;70.20;;;;;;5028636;28;20076;-67
2023/03/22 10:35:42;;;;;;;2.78;1.25;;;13.70;70.50;;;;;;5003612;28;20025;-65
2023/03/22 10:38:19;;;;;;;0.98;0.80;;;13.70;71.00;;;;;;5023214;28;20026;-66
2023/03/22 10:40:48;;;;;;;1.15;0.65;;;13.70;71.40;;;;;;5034922;28;20033;-65
2023/03/22 10:43:24;;;;;;;2.08;1.35;;;13.60;71.50;;;;;;5021163;28;20037;-68
2023/03/22 10:45:53;;;;;;;10.77;1.08;;;13.60;71.90;;;;;;5006453;28;20034;-69
2023/03/22 10:48:26;;;;;;;2.85;1.20;;;13.60;72.20;;;;;;5024607;28;20060;-69
2023/03/22 10:50:53;;;;;;;1.00;0.68;;;13.50;72.40;;;;;;5023522;28;20017;-68
2023/03/22 10:53:25;;;;;;;6.35;2.47;;;13.50;72.60;;;;;;5025970;28;20083;-64
2023/03/22 10:55:51;;;;;;;2.17;1.38;;;13.50;73.00;;;;;;5024726;28;20029;-65
2023/03/22 10:58:22;;;;;;;8.05;1.17;;;13.50;73.40;;;;;;5027368;28;20381;-65
2023/03/22 11:00:55;;;;;;;8.82;1.10;;;13.40;74.00;;;;;;5024068;28;20032;-64
2023/03/22 11:03:35;;;;;;;3.47;1.45;;;13.30;74.40;;;;;;5024558;28;20022;-65
2023/03/22 11:06:09;;;;;;;1.92;0.77;;;13.40;75.00;;;;;;5021512;28;20036;-69
2023/03/22 11:09:01;;;;;;;1.92;1.52;;;13.40;75.30;;;;;;5026589;28;20490;-65
2023/03/22 11:11:28;;;;;;;0.60;0.60;;;13.40;75.40;;;;;;5028128;28;20053;-65
2023/03/22 11:14:14;;;;;;;5.60;0.82;;;13.30;75.70;;;;;;5004328;28;21180;-69
2023/03/22 11:16:44;;;;;;;1.55;0.80;;;13.30;75.80;;;;;;5014255;28;20785;-69
2023/03/22 11:19:17;;;;;;;2.67;1.27;;;13.30;75.90;;;;;;5028017;28;20029;-69
2023/03/22 11:21:43;;;;;;;;;;;13.30;76.30;;;;;;5020245;28;20088;-70
2023/03/22 11:24:13;;;;;;;1.13;0.60;;;13.40;76.40;;;;;;5006057;28;20387;-70
2023/03/22 11:26:39;;;;;;;2.35;0.98;;;13.40;76.40;;;;;;5021196;28;20040;-64
2023/03/22 11:29:15;;;;;;;4.07;1.33;;;13.40;76.50;;;;;;5010386;28;20393;-70
2023/03/22 11:31:58;;;;;;;2.05;1.27;;;13.40;76.60;;;;;;5023781;28;20449;-70
2023/03/22 11:34:33;;;;;;;5.20;1.38;;;13.40;76.90;;;;;;5021754;28;20053;-70
2023/03/22 11:37:00;;;;;;;1.90;1.10;;;13.30;77.20;;;;;;5026062;28;20140;-65
2023/03/22 11:39:27;;;;;;;3.67;1.58;;;13.20;77.60;;;;;;5021621;28;20037;-64
2023/03/22 11:42:02;;;;;;;1.20;0.77;;;13.20;78.00;;;;;;5002146;28;20058;-66
2023/03/22 11:44:33;;;;;;;5.68;1.63;;;13.20;78.00;;;;;;5010242;28;20499;-65
2023/03/22 11:47:01;;;;;;;3.55;1.02;;;13.20;77.90;;;;;;5021074;28;20104;-64
2023/03/22 11:49:41;;;;;;;3.55;0.80;;;13.20;78.30;;;;;;5024711;28;20036;-66
2023/03/22 11:52:11;;;;;;;2.08;0.93;;;13.20;77.60;;;;;;5027985;28;20026;-70
2023/03/22 11:54:38;;;;;;;3.03;0.98;;;13.20;77.80;;;;;;5023839;28;20097;-65
2023/03/22 11:57:12;;;;;;;3.00;1.52;;;13.20;77.80;;;;;;5010176;28;20044;-70
2023/03/22 12:00:12;;;;;;;2.65;1.15;;;13.20;77.60;;;;;;5026900;28;20059;-65
2023/03/22 12:03:05;;;;;;;6.45;1.48;;;13.20;77.60;;;;;;5024636;28;20045;-66
2023/03/22 12:05:35;;;;;;;1.00;0.90;;;13.20;77.80;;;;;;5027771;28;20040;-71
2023/03/22 12:08:05;;;;;;;3.10;1.23;;;13.30;77.70;;;;;;5027812;28;20034;-70
2023/03/22 12:10:35;;;;;;;1.48;1.10;;;13.30;77.40;;;;;;5023535;28;20029;-70
2023/03/22 12:13:11;;;;;;;1.60;0.60;;;13.40;76.90;;;;;;5027127;28;20452;-70
2023/03/22 12:15:47;;;;;;;3.28;1.42;;;13.30;77.10;;;;;;5024419;28;20110;-69
2023/03/22 12:18:28;;;;;;;3.33;1.10;;;13.40;76.90;;;;;;5025939;28;20034;-69
2023/03/22 12:20:56;;;;;;;1.13;0.82;;;13.30;76.90;;;;;;5018210;28;20026;-65
2023/03/22 12:23:34;;;;;;;3.40;0.85;;;13.30;76.90;;;;;;5026567;28;20083;-69
2023/03/22 12:26:04;;;;;;;2.38;0.57;;;13.40;76.90;;;;;;5018182;28;20029;-65
2023/03/22 12:28:39;;;;;;;1.50;1.00;;;13.40;76.70;;;;;;5025910;28;20033;-69
2023/03/22 12:31:09;;;;;;;4.85;0.82;;;13.40;76.60;;;;;;5018954;28;20041;-69
2023/03/22 12:33:44;;;;;;;4.03;1.27;;;13.40;76.70;;;;;;5024561;28;20435;-69
2023/03/22 12:36:16;;;;;;;2.10;1.13;;;13.40;76.70;;;;;;5020846;28;20052;-65
2023/03/22 12:38:51;;;;;;;5.05;1.20;;;13.50;76.50;;;;;;5005405;28;20029;-65
2023/03/22 12:41:34;;;;;;;3.83;0.77;;;13.40;76.50;;;;;;5023221;28;20085;-70
2023/03/22 12:44:22;;;;;;;1.40;0.70;;;13.50;76.50;;;;;;5023234;28;20036;-69
2023/03/22 12:47:00;;;;;;;1.05;0.60;;;13.50;76.50;;;;;;5025379;28;20491;-69
2023/03/22 12:49:39;;;;;;;5.70;0.75;;;13.60;76.50;;;;;;5025939;28;20065;-70
2023/03/22 12:52:19;;;;;;;1.92;1.10;;;13.60;76.20;;;;;;5017322;28;20029;-69
2023/03/22 12:54:46;;;;;;;2.85;0.88;;;13.50;75.90;;;;;;5026946;28;20528;-70
2023/03/22 12:57:15;;;;;;;2.80;1.10;;;13.50;76.00;;;;;;5023494;28;20033;-69
2023/03/22 12:59:44;;;;;;;0.68;0.55;;;13.50;76.10;;;;;;5003291;28;20037;-65
2023/03/22 13:02:15;;;;;;;4.88;0.60;;;13.50;76.00;;;;;;5021880;28;20708;-65